createdAt,value
2019-03-16T00:01:16.888Z,0.47
2019-03-16T00:06:20.289Z,0.50
2019-03-16T00:11:23.671Z,0.50
2019-03-16T00:16:27.052Z,0.50
2019-03-16T00:21:30.435Z,0.50
2019-03-16T00:26:33.820Z,0.53
2019-03-16T00:31:37.207Z,0.40
2019-03-16T00:36:40.599Z,0.40
2019-03-16T00:41:43.983Z,0.50
2019-03-16T00:46:47.359Z,0.50
2019-03-16T00:51:50.739Z,0.40
2019-03-16T00:56:54.134Z,0.67
2019-03-16T01:01:57.523Z,0.50
2019-03-16T01:07:00.977Z,0.40
2019-03-16T01:12:04.355Z,0.40
2019-03-16T01:17:07.744Z,0.40
2019-03-16T01:22:11.148Z,0.57
2019-03-16T01:27:14.624Z,0.40
2019-03-16T01:32:17.989Z,0.40
2019-03-16T01:37:21.383Z,0.40
2019-03-16T01:42:24.759Z,0.40
2019-03-16T01:47:28.150Z,0.50
2019-03-16T01:52:31.557Z,0.40
2019-03-16T01:57:34.952Z,0.60
2019-03-16T02:02:38.347Z,0.40
2019-03-16T02:07:41.720Z,0.40
2019-03-16T02:12:45.112Z,0.40
2019-03-16T02:17:48.503Z,0.50
2019-03-16T02:22:51.887Z,0.47
2019-03-16T02:27:55.275Z,0.40
2019-03-16T02:33:11.733Z,0.40
2019-03-16T02:38:03.775Z,0.40
2019-03-16T02:43:07.173Z,0.40
2019-03-16T02:48:10.563Z,0.40
2019-03-16T02:53:13.951Z,0.60
2019-03-16T02:58:17.325Z,0.50
2019-03-16T03:03:29.220Z,0.40
2019-03-16T03:08:25.832Z,0.40
2019-03-16T03:13:29.216Z,0.57
2019-03-16T03:18:32.593Z,0.40
2019-03-16T03:23:35.978Z,0.40
2019-03-16T03:28:39.366Z,0.40
2019-03-16T03:33:58.710Z,0.40
2019-03-16T03:38:47.873Z,0.50
2019-03-16T03:43:51.249Z,0.50
2019-03-16T03:48:54.637Z,0.40
2019-03-16T03:53:58.033Z,0.40
2019-03-16T03:59:01.407Z,0.40
2019-03-16T04:04:15.212Z,0.50
2019-03-16T04:09:10.089Z,0.40
2019-03-16T04:14:13.477Z,0.40
2019-03-16T04:19:16.902Z,0.60
2019-03-16T04:24:20.332Z,0.47
2019-03-16T04:29:23.691Z,0.90
2019-03-16T04:34:29.625Z,0.50
2019-03-16T04:39:32.195Z,0.50
2019-03-16T04:44:35.592Z,0.40
2019-03-16T04:49:38.971Z,0.50
2019-03-16T04:54:42.352Z,0.40
2019-03-16T04:59:45.722Z,0.40
2019-03-16T05:04:49.154Z,0.50
2019-03-16T05:09:52.520Z,0.60
2019-03-16T05:14:55.907Z,0.50
2019-03-16T05:19:59.296Z,0.40
2019-03-16T05:25:02.712Z,0.50
2019-03-16T05:30:09.175Z,0.60
2019-03-16T05:35:12.632Z,0.40
2019-03-16T05:40:16.016Z,0.47
2019-03-16T05:45:19.399Z,0.53
2019-03-16T05:50:22.784Z,0.80
2019-03-16T05:55:26.166Z,0.40
2019-03-16T06:00:29.548Z,0.40
2019-03-16T06:05:32.936Z,0.40
2019-03-16T06:10:36.322Z,0.93
2019-03-16T06:15:39.708Z,0.50
2019-03-16T06:20:43.091Z,0.40
2019-03-16T06:25:46.969Z,0.50
2019-03-16T06:30:50.382Z,0.60
2019-03-16T06:35:53.764Z,0.57
2019-03-16T06:40:57.160Z,0.47
2019-03-16T06:46:00.607Z,0.50
2019-03-16T06:51:03.995Z,0.50
2019-03-16T06:56:07.368Z,0.40
2019-03-16T07:01:10.760Z,0.70
2019-03-16T07:06:14.149Z,0.40
2019-03-16T07:11:17.520Z,0.40
2019-03-16T07:16:20.890Z,0.50
2019-03-16T07:21:24.278Z,0.47
2019-03-16T07:26:27.659Z,0.40
2019-03-16T07:31:31.040Z,0.50
2019-03-16T07:36:36.006Z,0.43
2019-03-16T07:41:39.675Z,0.50
2019-03-16T07:46:43.068Z,0.53
2019-03-16T07:51:46.447Z,0.57
2019-03-16T07:56:49.840Z,0.60
2019-03-16T08:01:53.223Z,0.50
2019-03-16T08:06:56.661Z,0.50
2019-03-16T08:12:00.059Z,0.40
2019-03-16T08:17:03.436Z,0.50
2019-03-16T08:22:06.818Z,0.67
2019-03-16T08:27:10.192Z,0.50
2019-03-16T08:32:13.571Z,0.40
2019-03-16T08:37:16.951Z,0.50
2019-03-16T08:42:20.335Z,0.40
2019-03-16T08:47:23.788Z,0.50
2019-03-16T08:52:27.176Z,0.40
2019-03-16T08:57:30.555Z,0.40
2019-03-16T09:02:33.955Z,0.50
2019-03-16T09:07:37.420Z,0.50
2019-03-16T09:12:40.792Z,0.40
2019-03-16T09:17:44.167Z,0.67
2019-03-16T09:22:47.555Z,0.77
2019-03-16T09:27:50.927Z,0.40
2019-03-16T09:32:54.387Z,0.40
2019-03-16T09:37:57.781Z,0.53
2019-03-16T09:43:01.160Z,0.70
2019-03-16T09:48:04.559Z,0.60
2019-03-16T09:53:07.945Z,0.50
2019-03-16T09:58:11.332Z,0.53
2019-03-16T10:03:14.711Z,0.50
2019-03-16T10:08:19.393Z,0.67
2019-03-16T10:13:22.863Z,0.60
2019-03-16T10:18:26.242Z,0.57
2019-03-16T10:23:29.637Z,0.57
2019-03-16T10:28:43.149Z,0.40
2019-03-16T10:33:38.131Z,0.80
2019-03-16T10:38:41.511Z,0.60
2019-03-16T10:43:44.897Z,0.80
2019-03-16T10:48:48.303Z,0.57
2019-03-16T10:53:51.684Z,0.53
2019-03-16T10:58:56.796Z,0.73
2019-03-16T11:04:00.179Z,0.70
2019-03-16T11:09:05.435Z,0.87
2019-03-16T11:14:08.823Z,1.20
2019-03-16T11:19:12.218Z,1.03
2019-03-16T11:24:15.603Z,0.60
2019-03-16T11:29:19.000Z,0.80
2019-03-16T11:34:22.399Z,0.70
2019-03-16T11:39:25.788Z,0.70
2019-03-16T11:44:29.176Z,0.80
2019-03-16T11:49:32.555Z,0.70
2019-03-16T11:54:35.952Z,0.73
2019-03-16T11:59:39.327Z,1.23
2019-03-16T12:04:42.715Z,1.10
2019-03-16T12:09:46.109Z,0.70
2019-03-16T12:14:49.503Z,0.80
2019-03-16T12:19:52.892Z,0.50
2019-03-16T12:24:56.291Z,0.60
2019-03-16T12:29:59.679Z,0.70
2019-03-16T12:35:03.640Z,0.50
2019-03-16T12:40:11.621Z,0.50
2019-03-16T12:45:20.221Z,0.60
2019-03-16T12:50:22.436Z,0.80
2019-03-16T12:55:25.923Z,0.60
2019-03-16T13:00:30.956Z,0.60
2019-03-16T13:05:34.337Z,0.83
2019-03-16T13:10:37.737Z,0.53
2019-03-16T13:15:41.121Z,0.70
2019-03-16T13:20:44.499Z,0.53
2019-03-16T13:25:47.961Z,0.97
2019-03-16T13:30:51.331Z,0.60
2019-03-16T13:35:54.724Z,1.00
2019-03-16T13:40:58.131Z,1.00
2019-03-16T13:46:01.503Z,0.70
2019-03-16T13:51:04.896Z,1.10
2019-03-16T13:56:08.271Z,0.57
2019-03-16T14:01:11.677Z,0.60
2019-03-16T14:06:15.043Z,0.83
2019-03-16T14:11:18.432Z,0.60
2019-03-16T14:16:21.816Z,0.67
2019-03-16T14:21:25.372Z,0.60
2019-03-16T14:26:28.788Z,0.73
2019-03-16T14:31:32.142Z,1.10
2019-03-16T14:36:35.535Z,0.80
2019-03-16T14:41:38.923Z,0.77
2019-03-16T14:46:42.308Z,0.57
2019-03-16T14:51:45.701Z,0.77
2019-03-16T14:56:49.091Z,0.70
2019-03-16T15:01:52.471Z,0.60
2019-03-16T15:06:55.864Z,0.97
2019-03-16T15:11:59.252Z,0.60
2019-03-16T15:17:02.669Z,0.83
2019-03-16T15:22:06.041Z,0.70
2019-03-16T15:27:09.447Z,0.70
2019-03-16T15:32:12.836Z,0.57
2019-03-16T15:37:16.234Z,0.70
2019-03-16T15:42:22.631Z,0.70
2019-03-16T15:47:24.717Z,0.60
2019-03-16T15:52:28.103Z,0.63
2019-03-16T15:57:31.500Z,0.80
2019-03-16T16:02:34.880Z,0.80
2019-03-16T16:07:38.282Z,0.93
2019-03-16T16:12:41.686Z,0.90
2019-03-16T16:17:45.058Z,0.83
2019-03-16T16:22:48.455Z,0.80
2019-03-16T16:27:51.847Z,1.07
2019-03-16T16:32:55.232Z,0.90
2019-03-16T16:37:58.624Z,0.97
2019-03-16T16:43:02.035Z,1.33
2019-03-16T16:48:05.415Z,1.03
2019-03-16T16:53:08.799Z,0.90
2019-03-16T16:58:12.186Z,1.00
2019-03-16T17:03:15.591Z,0.73
2019-03-16T17:08:18.968Z,0.90
2019-03-16T17:13:22.355Z,1.10
2019-03-16T17:18:25.763Z,0.60
2019-03-16T17:23:29.143Z,1.57
2019-03-16T17:28:32.543Z,0.90
2019-03-16T17:33:35.936Z,1.00
2019-03-16T17:38:39.336Z,1.17
2019-03-16T17:43:42.727Z,1.70
2019-03-16T17:48:46.102Z,1.90
2019-03-16T17:53:49.525Z,2.10
2019-03-16T17:58:52.930Z,1.37
2019-03-16T18:03:56.341Z,1.40
2019-03-16T18:09:01.917Z,1.17
2019-03-16T18:14:04.956Z,0.70
2019-03-16T18:19:08.343Z,0.70
2019-03-16T18:24:11.761Z,1.33
2019-03-16T18:29:15.163Z,1.30
2019-03-16T18:34:18.618Z,0.90
2019-03-16T18:39:22.047Z,1.67
2019-03-16T18:44:25.479Z,1.90
2019-03-16T18:49:28.917Z,2.77
2019-03-16T18:54:32.349Z,4.40
2019-03-16T18:59:35.785Z,3.30
2019-03-16T19:04:39.215Z,2.27
2019-03-16T19:09:42.599Z,2.13
2019-03-16T19:14:45.999Z,4.30
2019-03-16T19:19:49.385Z,2.87
2019-03-16T19:24:52.779Z,2.90
2019-03-16T19:29:56.166Z,1.80
2019-03-16T19:34:59.567Z,6.63
2019-03-16T19:40:02.951Z,1.73
2019-03-16T19:45:08.367Z,2.43
2019-03-16T19:50:13.395Z,1.87
2019-03-16T19:55:16.792Z,2.57
2019-03-16T20:00:20.236Z,1.63
2019-03-16T20:05:23.615Z,2.33
2019-03-16T20:10:27.029Z,1.80
2019-03-16T20:15:30.468Z,2.07
2019-03-16T20:20:33.849Z,1.63
2019-03-16T20:25:37.241Z,2.60
2019-03-16T20:30:40.610Z,2.17
2019-03-16T20:35:44.003Z,1.97
2019-03-16T20:40:49.811Z,2.30
2019-03-16T20:45:52.495Z,1.60
2019-03-16T20:50:55.878Z,1.53
2019-03-16T20:55:59.279Z,2.10
2019-03-16T21:01:02.743Z,1.47
2019-03-16T21:06:06.150Z,1.53
2019-03-16T21:11:09.632Z,2.10
2019-03-16T21:16:13.020Z,2.47
2019-03-16T21:21:17.283Z,2.27
2019-03-16T21:26:20.663Z,2.00
2019-03-16T21:31:24.051Z,1.70
2019-03-16T21:36:27.463Z,1.87
2019-03-16T21:41:30.847Z,2.10
2019-03-16T21:46:34.231Z,1.17
2019-03-16T21:51:37.607Z,2.10
2019-03-16T21:56:40.997Z,2.00
2019-03-16T22:01:44.388Z,2.70
2019-03-16T22:06:47.772Z,2.23
2019-03-16T22:11:51.160Z,2.00
2019-03-16T22:16:54.544Z,2.03
2019-03-16T22:21:57.929Z,2.00
2019-03-16T22:27:01.316Z,2.33
2019-03-16T22:32:04.707Z,2.10
2019-03-16T22:37:08.092Z,1.80
2019-03-16T22:42:11.492Z,2.00
2019-03-16T22:47:14.887Z,2.30
2019-03-16T22:52:18.264Z,1.70
2019-03-16T22:57:21.656Z,1.70
2019-03-16T23:02:25.043Z,2.20
2019-03-16T23:07:28.428Z,1.60
2019-03-16T23:12:31.807Z,1.73
2019-03-16T23:17:35.190Z,1.50
2019-03-16T23:22:38.590Z,1.10
2019-03-16T23:27:41.980Z,1.13
2019-03-16T23:32:45.378Z,1.23
2019-03-16T23:37:48.760Z,1.50
2019-03-16T23:42:52.146Z,1.60
2019-03-16T23:47:55.555Z,1.20
2019-03-16T23:52:58.961Z,1.13
2019-03-16T23:58:02.351Z,1.67
